Time;durP1;ratioP1;P1;durP2;ratioP2;P2;SDS_P1;SDS_P2;PMS_P1;PMS_P2;Temp;Humidity;BMP_temperature;BMP_pressure;BME280_temperature;BME280_humidity;BME280_pressure;Samples;Min_cycle;Max_cycle;Signal;HPM_P1;HPM_P2
2023/06/18 00:00:41;;;;;;;42.17;26.63;;;;;;;15.26;100.00;101506.31;4948004;29;20047;-76
2023/06/18 00:03:08;;;;;;;47.13;28.50;;;;;;;15.27;100.00;101516.03;4949465;29;20422;-77
2023/06/18 00:05:35;;;;;;;42.63;27.98;;;;;;;15.26;100.00;101509.84;4967533;28;20050;-76
2023/06/18 00:08:05;;;;;;;41.50;26.98;;;;;;;15.28;100.00;101508.06;4950209;29;20054;-77
2023/06/18 00:10:33;;;;;;;50.40;31.42;;;;;;;15.27;100.00;101506.28;4898295;28;20060;-77
2023/06/18 00:13:00;;;;;;;48.58;30.75;;;;;;;15.27;100.00;101503.63;4961428;28;20055;-77
2023/06/18 00:15:27;;;;;;;56.30;33.00;;;;;;;15.25;100.00;101496.56;4979422;28;20052;-77
2023/06/18 00:17:55;;;;;;;56.58;31.90;;;;;;;15.23;100.00;101493.91;4949081;28;20057;-77
2023/06/18 00:20:22;;;;;;;47.95;30.55;;;;;;;15.20;100.00;101494.81;4938618;28;20062;-77
2023/06/18 00:22:52;;;;;;;55.03;33.92;;;;;;;15.20;100.00;101491.31;4928030;29;20044;-77
2023/06/18 00:25:21;;;;;;;67.60;33.67;;;;;;;15.16;100.00;101493.09;4927402;28;20051;-78
2023/06/18 00:27:48;;;;;;;68.03;32.53;;;;;;;15.13;100.00;101493.09;4926289;28;20047;-77
2023/06/18 00:30:16;;;;;;;52.58;30.75;;;;;;;15.09;100.00;101494.00;4948367;29;20054;-77
2023/06/18 00:32:44;;;;;;;53.30;31.55;;;;;;;15.09;100.00;101490.47;4941863;28;20043;-78
2023/06/18 00:35:12;;;;;;;74.05;34.15;;;;;;;15.07;100.00;101498.44;4936185;28;20048;-77
2023/06/18 00:37:43;;;;;;;76.63;34.10;;;;;;;15.06;100.00;101495.78;4946370;29;20035;-77
2023/06/18 00:40:12;;;;;;;49.13;29.92;;;;;;;15.01;100.00;101501.13;4949257;29;20047;-77
2023/06/18 00:42:40;;;;;;;105.95;35.45;;;;;;;15.01;100.00;101501.13;4903169;28;20043;-77
2023/06/18 00:45:12;;;;;;;57.42;30.92;;;;;;;15.01;100.00;101498.47;4940967;29;20047;-77
2023/06/18 00:47:44;;;;;;;63.42;33.80;;;;;;;15.02;100.00;101495.78;4976323;28;20066;-77
2023/06/18 00:50:14;;;;;;;62.47;32.25;;;;;;;15.05;100.00;101500.22;4940077;28;20047;-77
2023/06/18 00:52:47;;;;;;;86.15;34.50;;;;;;;15.07;100.00;101493.13;4945684;29;20537;-78
2023/06/18 00:55:16;;;;;;;79.03;36.85;;;;;;;15.07;100.00;101485.16;4949066;29;20059;-77
2023/06/18 00:57:49;;;;;;;70.47;35.65;;;;;;;15.05;100.00;101488.69;4898587;28;20691;-77
2023/06/18 01:00:19;;;;;;;92.28;38.15;;;;;;;15.04;100.00;101482.53;4949567;29;20051;-77
2023/06/18 01:02:53;;;;;;;169.07;40.10;;;;;;;15.04;100.00;101482.53;4962069;28;20167;-80
2023/06/18 01:05:21;;;;;;;93.95;38.25;;;;;;;15.02;100.00;101484.31;4953009;28;20048;-78
2023/06/18 01:07:49;;;;;;;86.22;36.33;;;;;;;15.03;100.00;101486.09;4946660;28;20568;-77
2023/06/18 01:10:17;;;;;;;65.70;35.00;;;;;;;15.06;100.00;101486.03;4947325;29;20054;-77
2023/06/18 01:12:48;;;;;;;92.45;37.55;;;;;;;15.10;100.00;101481.59;4891028;29;20051;-76
2023/06/18 01:15:18;;;;;;;96.60;38.08;;;;;;;15.13;100.00;101485.13;4949590;29;20498;-78
2023/06/18 01:17:48;;;;;;;99.07;39.85;;;;;;;15.15;100.00;101477.16;4946875;29;20050;-78
2023/06/18 01:20:17;;;;;;;253.65;43.40;;;;;;;15.13;100.00;101477.16;4948268;29;20058;-77
2023/06/18 01:22:57;;;;;;;70.45;35.45;;;;;;;15.16;100.00;101481.56;4948264;28;20063;-77
2023/06/18 01:25:26;;;;;;;209.60;44.47;;;;;;;15.17;100.00;101478.91;4947070;29;20507;-77
2023/06/18 01:27:56;;;;;;;119.90;41.47;;;;;;;15.16;100.00;101484.22;4889771;28;20051;-76
2023/06/18 01:30:24;;;;;;;83.25;37.67;;;;;;;15.17;100.00;101481.56;4931194;29;20058;-76
2023/06/18 01:32:54;;;;;;;131.75;43.55;;;;;;;15.18;100.00;101475.38;4946524;29;20051;-76
2023/06/18 01:35:22;;;;;;;83.60;38.53;;;;;;;15.19;100.00;101478.91;4945401;28;20058;-77
2023/06/18 01:38:08;;;;;;;122.07;41.60;;;;;;;15.17;100.00;101484.22;4941080;28;20048;-77
2023/06/18 01:41:01;;;;;;;110.53;40.00;;;;;;;15.16;100.00;101477.16;4945105;29;20422;-77
2023/06/18 01:43:37;;;;;;;107.40;39.38;;;;;;;15.18;100.00;101480.69;4903823;28;20044;-78
2023/06/18 01:46:07;;;;;;;91.35;40.47;;;;;;;15.22;100.00;101481.56;4972958;28;20048;-77
2023/06/18 01:48:42;;;;;;;141.98;43.63;;;;;;;15.23;100.00;101483.31;4944086;29;20058;-77
2023/06/18 01:51:12;;;;;;;113.40;41.05;;;;;;;15.23;100.00;101485.94;4955223;28;20051;-77
2023/06/18 01:53:40;;;;;;;98.82;39.55;;;;;;;15.23;100.00;101490.38;4945952;29;20050;-77
2023/06/18 01:56:09;;;;;;;119.18;43.95;;;;;;;15.19;100.00;101487.75;4947704;29;20051;-77
2023/06/18 01:58:41;;;;;;;86.47;40.13;;;;;;;15.18;100.00;101475.38;4914739;28;20086;-77
2023/06/18 02:01:11;;;;;;;92.65;38.22;;;;;;;15.18;100.00;101480.69;4947565;29;20058;-77
2023/06/18 02:03:40;;;;;;;164.65;41.25;;;;;;;15.19;100.00;101477.13;4943934;29;20047;-77
2023/06/18 02:06:08;;;;;;;77.57;37.13;;;;;;;15.18;100.00;101477.16;4962544;28;20043;-77
2023/06/18 02:08:35;;;;;;;68.45;34.97;;;;;;;15.18;100.00;101470.06;4932916;28;20047;-77
2023/06/18 02:11:03;;;;;;;118.18;38.58;;;;;;;15.20;100.00;101464.75;4948726;29;20050;-77
2023/06/18 02:13:30;;;;;;;67.57;34.70;;;;;;;15.21;100.00;101478.00;4916499;28;20060;-77
2023/06/18 02:15:57;;;;;;;64.65;34.30;;;;;;;15.24;100.00;101473.59;4922436;29;20051;-76
2023/06/18 02:18:31;;;;;;;66.15;34.60;;;;;;;15.27;100.00;101470.88;4944691;29;20047;-77
2023/06/18 02:20:59;;;;;;;84.55;36.75;;;;;;;15.27;100.00;101470.88;4945861;28;20047;-77
2023/06/18 02:23:27;;;;;;;127.70;38.03;;;;;;;15.27;100.00;101476.19;4935564;28;20054;-76
2023/06/18 02:25:57;;;;;;;88.75;37.65;;;;;;;15.26;100.00;101471.78;4946015;29;20047;-77
2023/06/18 02:28:24;;;;;;;129.30;36.87;;;;;;;15.20;100.00;101473.59;4961616;28;20058;-77
2023/06/18 02:30:52;;;;;;;126.85;34.15;;;;;;;15.16;100.00;101473.59;4935958;28;20043;-77
2023/06/18 02:33:20;;;;;;;76.32;31.38;;;;;;;15.15;100.00;101463.88;4930884;29;20059;-77
2023/06/18 02:35:47;;;;;;;95.70;34.92;;;;;;;15.12;100.00;101463.91;4945248;29;20541;-77
2023/06/18 02:38:14;;;;;;;113.65;33.30;;;;;;;15.10;100.00;101458.59;4941232;28;20046;-76
2023/06/18 02:40:42;;;;;;;99.72;34.47;;;;;;;15.03;100.00;101464.84;4959306;28;20824;-77
2023/06/18 02:43:09;;;;;;;195.82;36.80;;;;;;;15.00;100.00;101471.03;4952117;28;20569;-77
2023/06/18 02:45:37;;;;;;;66.40;31.73;;;;;;;14.98;100.00;101469.28;4887820;29;20443;-77
2023/06/18 02:48:04;;;;;;;60.80;31.52;;;;;;;15.01;100.00;101474.59;4931314;29;20457;-77
2023/06/18 02:50:32;;;;;;;80.75;34.28;;;;;;;15.04;100.00;101471.91;4944922;29;20058;-77
2023/06/18 02:52:59;;;;;;;226.07;39.72;;;;;;;15.06;100.00;101467.47;4947331;29;20699;-77
2023/06/18 02:55:28;;;;;;;150.65;39.42;;;;;;;15.04;100.00;101465.72;4934117;28;20062;-78
2023/06/18 02:57:55;;;;;;;147.43;37.08;;;;;;;15.03;100.00;101472.81;4947871;29;20678;-76
2023/06/18 03:00:23;;;;;;;193.00;37.80;;;;;;;15.00;100.00;101468.38;4885226;29;20064;-77
2023/06/18 03:02:50;;;;;;;86.53;37.15;;;;;;;14.98;100.00;101456.03;4946517;29;20077;-77
2023/06/18 03:05:21;;;;;;;;;;;;;;;15.01;100.00;101458.66;4961680;28;20136;-76
2023/06/18 03:07:50;;;;;;;153.30;39.58;;;;;;;15.01;100.00;101466.63;4943907;29;19926;-77
2023/06/18 03:10:19;;;;;;;76.03;36.45;;;;;;;15.02;100.00;101463.06;4944906;28;20554;-77
2023/06/18 03:12:50;;;;;;;78.72;38.08;;;;;;;15.06;100.00;101459.50;4959406;28;20847;-77
2023/06/18 03:15:37;;;;;;;118.38;38.63;;;;;;;15.10;100.00;101461.25;4901518;28;21348;-76
2023/06/18 03:18:05;;;;;;;70.78;34.88;;;;;;;15.11;100.00;101468.34;4932631;29;20048;-77
2023/06/18 03:20:34;;;;;;;58.50;32.83;;;;;;;15.14;100.00;101460.38;4937782;29;20067;-77
2023/06/18 03:23:02;;;;;;;92.82;36.35;;;;;;;15.16;100.00;101460.31;4946936;29;20047;-77
2023/06/18 03:25:30;;;;;;;57.35;33.38;;;;;;;15.18;100.00;101461.22;4948861;28;20051;-76
2023/06/18 03:27:58;;;;;;;57.38;33.53;;;;;;;15.20;100.00;101460.31;4946273;29;20047;-77
2023/06/18 03:30:28;;;;;;;50.55;31.65;;;;;;;15.24;100.00;101458.53;4945532;29;20047;-77
2023/06/18 03:32:58;;;;;;;56.97;32.13;;;;;;;15.28;100.00;101459.41;4892806;29;20055;-76
2023/06/18 03:35:27;;;;;;;65.07;33.20;;;;;;;15.31;100.00;101448.72;4948895;28;20051;-77
2023/06/18 03:37:55;;;;;;;60.72;31.20;;;;;;;15.31;100.00;101448.72;4964617;28;20051;-76
2023/06/18 03:40:24;;;;;;;53.00;31.83;;;;;;;15.33;100.00;101457.56;4941754;28;20061;-77
2023/06/18 03:42:51;;;;;;;47.03;28.63;;;;;;;15.30;100.00;101447.84;4980565;28;20055;-77
2023/06/18 03:45:22;;;;;;;55.90;29.85;;;;;;;15.27;100.00;101454.97;4933187;29;20558;-77
2023/06/18 03:47:52;;;;;;;51.85;31.60;;;;;;;15.23;100.00;101456.75;4937304;28;20043;-77
2023/06/18 03:50:23;;;;;;;46.45;30.40;;;;;;;15.23;100.00;101456.75;4948866;29;20502;-77
2023/06/18 03:52:51;;;;;;;53.03;33.13;;;;;;;15.24;100.00;101455.00;4932585;29;20051;-78
2023/06/18 03:55:18;;;;;;;52.35;29.83;;;;;;;15.27;100.00;101462.94;4928332;28;20531;-76
2023/06/18 03:57:46;;;;;;;48.72;30.05;;;;;;;15.30;100.00;101462.91;4946945;28;20055;-77
2023/06/18 04:00:14;;;;;;;47.97;29.08;;;;;;;15.35;100.00;101469.09;4942511;29;20074;-77
2023/06/18 04:02:43;;;;;;;37.13;26.50;;;;;;;15.35;100.00;101469.09;4878272;28;20066;-78
2023/06/18 04:05:17;;;;;;;41.35;26.27;;;;;;;15.32;100.00;101464.66;4942430;29;20101;-77
2023/06/18 04:07:44;;;;;;;37.25;26.83;;;;;;;15.32;100.00;101467.31;4940723;28;20541;-77
2023/06/18 04:10:12;;;;;;;34.42;26.23;;;;;;;15.33;100.00;101469.09;4947879;29;20047;-76
2023/06/18 04:12:39;;;;;;;32.38;23.88;;;;;;;15.37;100.00;101473.47;4935763;28;20062;-77
2023/06/18 04:15:07;;;;;;;37.70;26.38;;;;;;;15.37;100.00;101462.88;4920974;29;20555;-76
2023/06/18 04:17:42;;;;;;;31.33;24.20;;;;;;;15.40;100.00;101462.81;4939382;29;20507;-77
2023/06/18 04:20:12;;;;;;;34.47;24.90;;;;;;;15.48;100.00;101460.13;4893876;28;20062;-77
2023/06/18 04:22:40;;;;;;;32.88;23.98;;;;;;;15.51;100.00;101454.78;4939730;28;20431;-77
2023/06/18 04:25:10;;;;;;;35.45;25.73;;;;;;;15.54;100.00;101461.88;4929110;29;20383;-77
2023/06/18 04:27:39;;;;;;;38.92;27.13;;;;;;;15.55;100.00;101455.66;4938341;28;20043;-77
2023/06/18 04:30:07;;;;;;;40.75;26.15;;;;;;;15.53;100.00;101458.31;4936420;29;20048;-78
2023/06/18 04:32:35;;;;;;;39.70;26.98;;;;;;;15.54;100.00;101457.44;4955003;28;20066;-77
2023/06/18 04:35:06;;;;;;;38.58;26.80;;;;;;;15.58;100.00;101458.28;4905727;28;20081;-77
2023/06/18 04:37:33;;;;;;;29.58;23.08;;;;;;;15.56;100.00;101460.09;4938014;28;20079;-79
2023/06/18 04:40:03;;;;;;;44.15;33.78;;;;;;;15.61;100.00;101458.25;4932146;29;20071;-77
2023/06/18 04:42:31;;;;;;;30.02;22.80;;;;;;;15.67;100.00;101457.31;4955790;28;20053;-78
2023/06/18 04:44:59;;;;;;;43.08;24.90;;;;;;;15.69;100.00;101458.19;4936657;28;20050;-76
2023/06/18 04:47:27;;;;;;;33.05;23.60;;;;;;;15.71;100.00;101459.09;4929849;29;20066;-77
2023/06/18 04:49:54;;;;;;;39.55;24.52;;;;;;;15.75;100.00;101459.06;4923915;28;20058;-77
2023/06/18 04:52:22;;;;;;;32.03;22.83;;;;;;;15.82;100.00;101462.53;4945378;29;20059;-77
2023/06/18 04:54:52;;;;;;;25.63;21.83;;;;;;;16.06;100.00;101463.22;4940645;28;20059;-77
2023/06/18 04:57:24;;;;;;;26.33;20.35;;;;;;;16.28;100.00;101461.22;4928273;29;20055;-76
2023/06/18 04:59:52;;;;;;;24.27;20.05;;;;;;;16.51;100.00;101461.84;4942913;28;20046;-77
2023/06/18 05:02:21;;;;;;;23.55;19.50;;;;;;;16.77;100.00;101458.00;4921715;29;20443;-76
2023/06/18 05:04:49;;;;;;;23.75;19.33;;;;;;;17.16;100.00;101458.38;4884730;29;20051;-76
2023/06/18 05:07:17;;;;;;;21.40;18.17;;;;;;;17.31;100.00;101458.13;4943160;29;20070;-77
2023/06/18 05:09:45;;;;;;;21.38;18.67;;;;;;;17.56;100.00;101462.22;4939701;28;20036;-76
2023/06/18 05:12:14;;;;;;;20.50;17.92;;;;;;;17.90;100.00;101458.13;4952914;28;20495;-78
2023/06/18 05:14:43;;;;;;;19.55;17.48;;;;;;;18.22;100.00;101464.66;4945583;29;20047;-76
2023/06/18 05:17:10;;;;;;;21.75;19.05;;;;;;;18.34;100.00;101462.69;4906987;29;20043;-76
2023/06/18 05:19:38;;;;;;;19.25;17.25;;;;;;;18.41;100.00;101459.84;4906610;28;20067;-77
2023/06/18 05:22:06;;;;;;;17.85;15.98;;;;;;;18.54;100.00;101456.94;4910008;29;20051;-76
2023/06/18 05:24:34;;;;;;;18.08;16.17;;;;;;;18.74;100.00;101461.88;4936579;28;20067;-77
2023/06/18 05:27:01;;;;;;;17.85;15.95;;;;;;;18.83;100.00;101461.72;4928969;29;20062;-77
2023/06/18 05:29:29;;;;;;;16.55;14.85;;;;;;;18.90;100.00;101465.97;4944380;29;20047;-76
2023/06/18 05:31:56;;;;;;;16.65;14.95;;;;;;;18.94;100.00;101458.78;4926240;28;20066;-77
2023/06/18 05:34:30;;;;;;;16.33;14.65;;;;;;;19.04;100.00;101466.56;4943726;29;20055;-78
2023/06/18 05:36:58;;;;;;;18.73;14.55;;;;;;;19.29;100.00;101468.69;4891076;29;20066;-77
2023/06/18 05:39:26;;;;;;;15.77;13.68;;;;;;;19.62;100.00;101468.78;4967615;28;20047;-77
2023/06/18 05:41:54;;;;;;;14.73;13.23;;;;;;;19.74;100.00;101470.34;4930923;29;20066;-77
2023/06/18 05:44:24;;;;;;;16.20;14.48;;;;;;;19.75;100.00;101472.06;4946510;28;20055;-78
2023/06/18 05:46:51;;;;;;;15.88;13.93;;;;;;;19.56;100.00;101474.28;4934655;28;20407;-76
2023/06/18 05:49:20;;;;;;;16.13;14.43;;;;;;;19.36;100.00;101475.66;4925940;29;20139;-76
2023/06/18 05:51:48;;;;;;;18.42;16.17;;;;;;;19.20;100.00;101475.09;4905516;28;20062;-77
2023/06/18 05:54:18;;;;;;;18.03;15.97;;;;;;;18.93;100.00;101471.25;4939819;28;20070;-76
2023/06/18 05:56:46;;;;;;;18.65;16.75;;;;;;;18.76;100.00;101471.59;4944996;29;20298;-77
2023/06/18 05:59:14;;;;;;;18.58;16.52;;;;;;;18.48;100.00;101473.94;4958122;28;20522;-77
2023/06/18 06:01:46;;;;;;;21.35;18.42;;;;;;;18.30;100.00;101467.19;4959223;28;20047;-77
2023/06/18 06:04:14;;;;;;;22.58;18.95;;;;;;;18.06;100.00;101469.38;4907144;29;20058;-78
2023/06/18 06:06:42;;;;;;;23.67;18.73;;;;;;;17.83;100.00;101479.56;4914822;28;20059;-76
2023/06/18 06:09:12;;;;;;;22.30;18.27;;;;;;;17.65;100.00;101491.38;4954189;28;20050;-77
2023/06/18 06:11:40;;;;;;;22.05;18.67;;;;;;;17.53;100.00;101496.00;4948274;28;20047;-77
2023/06/18 06:14:11;;;;;;;23.05;19.10;;;;;;;17.51;100.00;101496.94;4949607;28;20062;-77
2023/06/18 06:16:39;;;;;;;25.92;21.00;;;;;;;17.52;100.00;101504.00;4962244;28;20054;-77
2023/06/18 06:19:07;;;;;;;25.15;19.77;;;;;;;17.49;100.00;101507.63;4914542;28;20047;-77
2023/06/18 06:21:34;;;;;;;23.33;19.55;;;;;;;17.61;100.00;101503.00;4904282;28;20047;-77
2023/06/18 06:24:02;;;;;;;24.83;19.85;;;;;;;17.66;100.00;101501.16;4927330;29;20051;-77
2023/06/18 06:26:30;;;;;;;24.38;19.08;;;;;;;17.85;100.00;101501.75;4952077;28;20674;-78
2023/06/18 06:28:57;;;;;;;26.83;20.27;;;;;;;18.29;100.00;101500.09;4958921;28;20058;-77
2023/06/18 06:31:25;;;;;;;24.17;21.00;;;;;;;18.66;100.00;101494.06;4943825;29;20054;-77
2023/06/18 06:33:54;;;;;;;25.08;20.35;;;;;;;18.91;100.00;101502.47;4935708;28;20043;-77
2023/06/18 06:36:24;;;;;;;22.10;18.30;;;;;;;19.07;100.00;101493.22;4880207;29;20063;-77
2023/06/18 06:38:53;;;;;;;23.23;19.92;;;;;;;19.21;100.00;101495.56;4946429;28;20066;-77
2023/06/18 06:41:20;;;;;;;22.73;18.92;;;;;;;19.31;100.00;101498.03;4935526;28;20051;-76
2023/06/18 06:43:47;;;;;;;25.65;19.65;;;;;;;19.34;100.00;101489.94;4942116;29;20051;-77
2023/06/18 06:46:35;;;;;;;23.13;18.13;;;;;;;19.35;100.00;101479.22;4937041;29;20419;-76
2023/06/18 06:49:08;;;;;;;21.48;17.35;;;;;;;19.48;100.00;101474.47;4932217;28;20384;-76
2023/06/18 06:51:54;;;;;;;17.15;15.32;;;;;;;19.59;100.00;101483.13;4894960;28;20521;-77
2023/06/18 06:54:22;;;;;;;16.73;14.88;;;;;;;19.69;100.00;101478.41;4957084;28;20724;-78
2023/06/18 06:56:50;;;;;;;18.05;14.90;;;;;;;19.63;100.00;101483.91;4921068;29;20047;-76
2023/06/18 06:59:17;;;;;;;19.00;14.93;;;;;;;19.66;100.00;101486.53;4957361;28;20059;-76
2023/06/18 07:01:45;;;;;;;16.48;13.98;;;;;;;19.69;100.00;101497.13;4961609;28;20427;-78
2023/06/18 07:04:13;;;;;;;16.83;14.75;;;;;;;19.78;100.00;101504.97;4934036;28;20062;-77
2023/06/18 07:06:40;;;;;;;17.00;15.20;;;;;;;19.90;100.00;101506.44;4971219;28;20047;-77
2023/06/18 07:09:08;;;;;;;15.70;13.13;;;;;;;20.00;100.00;101504.41;4900859;28;20525;-77
2023/06/18 07:11:40;;;;;;;17.15;13.63;;;;;;;19.96;100.00;101498.28;4943736;29;20410;-78
2023/06/18 07:14:08;;;;;;;17.83;14.30;;;;;;;19.90;100.00;101502.91;4965311;28;20054;-76
2023/06/18 07:16:35;;;;;;;15.35;13.70;;;;;;;19.94;100.00;101504.56;4972618;28;20062;-78
2023/06/18 07:19:03;;;;;;;14.95;13.40;;;;;;;20.01;100.00;101503.50;4974866;28;20043;-77
2023/06/18 07:21:31;;;;;;;15.85;12.68;;;;;;;20.06;100.00;101518.53;4926697;28;20047;-77
2023/06/18 07:23:58;;;;;;;15.35;13.23;;;;;;;20.13;100.00;101507.66;4872826;29;20098;-77
2023/06/18 07:26:25;;;;;;;15.70;14.00;;;;;;;20.16;100.00;101513.81;4944204;29;20059;-77
2023/06/18 07:28:53;;;;;;;14.10;12.60;;;;;;;20.28;100.00;101523.31;4925202;28;20051;-77
2023/06/18 07:31:20;;;;;;;13.60;12.25;;;;;;;20.41;100.00;101513.16;4944834;29;20164;-77
2023/06/18 07:33:48;;;;;;;13.50;11.77;;;;;;;20.55;100.00;101513.66;4957661;28;20055;-77
2023/06/18 07:36:15;;;;;;;13.13;11.45;;;;;;;20.70;100.00;101516.84;4930908;28;20058;-77
2023/06/18 07:38:42;;;;;;;14.07;11.25;;;;;;;20.84;100.00;101511.97;4929276;29;20046;-77
2023/06/18 07:41:10;;;;;;;11.77;10.57;;;;;;;20.99;100.00;101511.53;4914567;28;20055;-77
2023/06/18 07:43:39;;;;;;;13.50;12.07;;;;;;;21.08;100.00;101512.16;4929229;28;20055;-77
2023/06/18 07:46:07;;;;;;;16.88;11.00;;;;;;;21.08;100.00;101499.66;4956391;28;20660;-76
2023/06/18 07:48:34;;;;;;;12.25;10.98;;;;;;;21.05;100.00;101496.19;4945205;29;20115;-76
2023/06/18 07:51:03;;;;;;;12.13;10.77;;;;;;;21.04;100.00;101489.97;4928117;28;20048;-76
2023/06/18 07:53:32;;;;;;;13.38;10.75;;;;;;;20.99;100.00;101494.59;4963486;28;20055;-77
2023/06/18 07:55:59;;;;;;;13.85;10.77;;;;;;;20.90;100.00;101485.00;4899047;28;20047;-77
2023/06/18 07:58:27;;;;;;;12.38;10.40;;;;;;;20.94;100.00;101489.34;4977019;28;20388;-77
2023/06/18 08:00:54;;;;;;;14.73;12.00;;;;;;;21.01;100.00;101487.38;4929432;28;20069;-77
2023/06/18 08:03:22;;;;;;;13.05;11.65;;;;;;;20.99;100.00;101486.53;4973417;28;20055;-77
2023/06/18 08:05:50;;;;;;;14.70;13.18;;;;;;;21.03;100.00;101490.88;4954208;28;20047;-77
2023/06/18 08:08:17;;;;;;;13.55;12.13;;;;;;;21.00;100.00;101481.16;4934165;28;20058;-77
2023/06/18 08:10:44;;;;;;;12.85;11.55;;;;;;;21.00;100.00;101473.09;4920925;28;20054;-77
2023/06/18 08:13:12;;;;;;;15.13;13.60;;;;;;;21.06;100.00;101480.09;4886712;29;20047;-78
2023/06/18 08:15:40;;;;;;;13.80;12.40;;;;;;;21.00;100.00;101477.56;4931509;28;20054;-77
2023/06/18 08:18:08;;;;;;;14.88;13.38;;;;;;;21.01;100.00;101471.28;4932692;28;20498;-77
2023/06/18 08:20:36;;;;;;;17.30;14.20;;;;;;;20.97;100.00;101473.19;4926766;28;20050;-76
2023/06/18 08:23:03;;;;;;;14.45;12.98;;;;;;;20.91;100.00;101469.84;4913680;28;20078;-77
2023/06/18 08:25:30;;;;;;;14.30;12.90;;;;;;;20.86;100.00;101474.44;4922918;29;20048;-77
2023/06/18 08:27:58;;;;;;;14.40;12.48;;;;;;;20.84;100.00;101474.47;4894499;28;20618;-76
2023/06/18 08:30:27;;;;;;;17.27;15.00;;;;;;;20.83;100.00;101478.97;4919586;28;21401;-77
2023/06/18 08:32:57;;;;;;;18.13;14.25;;;;;;;20.64;100.00;101473.28;4907331;29;20392;-76
2023/06/18 08:35:24;;;;;;;17.45;15.52;;;;;;;20.52;100.00;101468.22;4938139;28;20055;-77
2023/06/18 08:37:52;;;;;;;16.40;14.38;;;;;;;20.53;100.00;101463.72;4947653;28;20054;-77
2023/06/18 08:40:24;;;;;;;17.83;15.85;;;;;;;20.51;100.00;101471.84;4950306;28;20073;-77
2023/06/18 08:42:51;;;;;;;19.98;16.15;;;;;;;20.49;100.00;101471.00;4883481;29;20521;-76
2023/06/18 08:45:33;;;;;;;18.60;13.95;;;;;;;20.48;100.00;101461.19;4939623;29;20047;-77
2023/06/18 08:48:06;;;;;;;17.17;15.38;;;;;;;20.56;100.00;101464.53;4921858;28;20059;-76
2023/06/18 08:51:02;;;;;;;16.63;14.30;;;;;;;20.58;100.00;101465.34;4929159;28;21023;-77
2023/06/18 08:54:03;;;;;;;16.80;14.20;;;;;;;20.77;100.00;101463.06;4946025;29;20048;-77
2023/06/18 08:56:31;;;;;;;20.73;16.52;;;;;;;20.97;100.00;101457.13;4957354;28;20055;-78
2023/06/18 08:59:01;;;;;;;15.73;14.00;;;;;;;21.06;100.00;101463.09;4898442;28;20590;-79
2023/06/18 09:01:29;;;;;;;17.92;15.57;;;;;;;21.20;100.00;101453.72;4949350;28;20059;-80
2023/06/18 09:04:00;;;;;;;18.75;16.05;;;;;;;21.27;100.00;101457.09;4935881;28;20051;-80
2023/06/18 09:06:28;;;;;;;18.33;14.20;;;;;;;21.34;100.00;101447.94;4926882;28;20051;-80
2023/06/18 09:08:58;;;;;;;19.48;14.43;;;;;;;21.46;100.00;101454.72;4932276;28;20052;-80
2023/06/18 09:11:26;;;;;;;17.02;12.50;;;;;;;21.52;100.00;101438.44;4914991;29;20054;-80
2023/06/18 09:13:59;;;;;;;16.38;13.98;;;;;;;21.60;100.00;101444.41;4912739;28;20048;-79
2023/06/18 09:16:27;;;;;;;19.05;12.65;;;;;;;21.69;100.00;101442.38;4940309;28;20051;-80
2023/06/18 09:18:56;;;;;;;17.45;13.80;;;;;;;21.80;100.00;101438.38;4935830;28;20051;-80
2023/06/18 09:21:37;;;;;;;14.52;12.82;;;;;;;21.93;100.00;101438.84;4944181;29;20055;-79
2023/06/18 09:24:23;;;;;;;14.77;13.25;;;;;;;22.08;100.00;101440.09;4933388;28;20055;-80
2023/06/18 09:27:01;;;;;;;14.98;12.93;;;;;;;22.24;100.00;101444.94;4934670;28;20534;-79
2023/06/18 09:29:30;;;;;;;13.10;11.88;;;;;;;22.34;100.00;101449.03;4917768;28;20055;-79
2023/06/18 09:32:09;;;;;;;16.67;13.27;;;;;;;22.40;100.00;101446.16;4915912;29;20047;-79
2023/06/18 09:34:38;;;;;;;16.52;14.25;;;;;;;22.44;100.00;101444.22;4932556;28;20431;-80
2023/06/18 09:37:07;;;;;;;13.50;12.15;;;;;;;22.47;100.00;101447.66;4943723;29;20043;-78
2023/06/18 09:39:36;;;;;;;16.65;13.95;;;;;;;22.57;100.00;101446.41;4966960;28;20797;-77
2023/06/18 09:42:11;;;;;;;15.07;12.43;;;;;;;22.72;100.00;101444.94;4934216;28;20039;-79
2023/06/18 09:44:43;;;;;;;14.38;12.23;;;;;;;22.81;100.00;101442.84;4911349;28;20051;-80
2023/06/18 09:47:11;;;;;;;12.93;11.13;;;;;;;22.94;100.00;101438.72;4943763;29;20048;-79
2023/06/18 09:50:02;;;;;;;49.92;15.63;;;;;;;23.09;100.00;101435.47;4934149;28;20062;-78
2023/06/18 09:52:41;;;;;;;16.05;10.32;;;;;;;23.20;100.00;101426.97;4929143;29;20047;-81
2023/06/18 09:55:28;;;;;;;13.30;11.90;;;;;;;23.33;100.00;101427.38;4948103;28;20058;-80
2023/06/18 09:57:57;;;;;;;16.50;10.27;;;;;;;23.45;100.00;101431.34;4920084;29;20043;-78
2023/06/18 10:00:25;;;;;;;13.93;9.85;;;;;;;23.64;100.00;101428.78;4906483;28;20046;-78
2023/06/18 10:03:04;;;;;;;11.57;10.38;;;;;;;23.85;100.00;101417.09;4930569;29;20058;-81
2023/06/18 10:05:34;;;;;;;10.43;9.43;;;;;;;24.07;100.00;101424.25;4941319;28;20054;-82
2023/06/18 10:08:06;;;;;;;13.13;11.00;;;;;;;24.19;100.00;101418.31;4944150;28;20422;-82
2023/06/18 10:10:36;;;;;;;11.50;10.40;;;;;;;24.31;100.00;101422.31;4966310;28;20044;-83
2023/06/18 10:13:09;;;;;;;15.30;10.50;;;;;;;24.39;100.00;101424.63;4955597;28;20510;-82
2023/06/18 10:15:39;;;;;;;11.45;9.02;;;;;;;24.44;100.00;101418.09;4922158;28;20046;-82
2023/06/18 10:18:09;;;;;;;11.07;9.32;;;;;;;24.57;100.00;101422.94;4953601;28;20055;-83
2023/06/18 10:20:38;;;;;;;10.65;8.75;;;;;;;24.64;100.00;101416.31;4943125;28;20074;-84
2023/06/18 10:23:09;;;;;;;13.25;9.70;;;;;;;24.73;100.00;101428.50;4958425;28;20058;-83
2023/06/18 10:25:37;;;;;;;11.10;9.23;;;;;;;24.69;100.00;101420.56;4906461;29;20591;-82
2023/06/18 10:28:04;;;;;;;12.68;9.23;;;;;;;24.73;100.00;101423.13;4924696;28;20507;-82
2023/06/18 10:30:32;;;;;;;10.27;9.00;;;;;;;24.74;100.00;101420.31;4895135;28;20510;-83
2023/06/18 10:33:00;;;;;;;9.65;7.82;;;;;;;24.80;100.00;101408.38;4914766;29;20055;-81
2023/06/18 10:35:29;;;;;;;11.15;8.02;;;;;;;24.87;100.00;101418.78;4930331;28;20054;-82
2023/06/18 10:37:57;;;;;;;10.32;8.07;;;;;;;24.99;100.00;101411.06;4947435;28;20063;-84
2023/06/18 10:40:24;;;;;;;10.10;7.38;;;;;;;25.13;100.00;101418.50;4941057;28;20491;-85
2023/06/18 10:43:02;;;;;;;9.32;6.55;;;;;;;25.24;100.00;101413.50;4978490;28;20051;-84
2023/06/18 10:45:30;;;;;;;11.45;7.25;;;;;;;25.36;100.00;101410.16;4925209;28;20055;-84
2023/06/18 10:48:19;;;;;;;8.98;6.70;;;;;;;25.55;100.00;101395.75;4912978;29;20423;-85
2023/06/18 10:51:15;;;;;;;9.30;6.85;;;;;;;25.70;100.00;101391.41;4930071;29;20078;-84
2023/06/18 10:53:44;;;;;;;9.88;6.90;;;;;;;25.86;100.00;101381.56;4940105;28;20054;-83
2023/06/18 10:56:16;;;;;;;10.03;7.57;;;;;;;25.98;100.00;101386.31;4936050;28;20074;-84
2023/06/18 10:58:43;;;;;;;8.43;7.63;;;;;;;26.01;100.00;101382.56;4944566;29;20050;-84
2023/06/18 11:01:25;;;;;;;10.95;7.60;;;;;;;26.06;93.78;101384.06;4939991;28;20414;-83
2023/06/18 11:04:04;;;;;;;8.85;7.05;;;;;;;26.06;97.99;101385.91;4933248;28;20051;-84
2023/06/18 11:06:31;;;;;;;10.40;7.60;;;;;;;26.14;96.71;101386.38;4944832;29;20066;-82
2023/06/18 11:08:59;;;;;;;10.55;7.93;;;;;;;25.99;94.46;101396.19;4941028;28;20077;-84
2023/06/18 11:11:31;;;;;;;7.38;6.68;;;;;;;25.93;93.73;101388.38;4959138;28;20050;-83
2023/06/18 11:13:58;;;;;;;9.23;7.10;;;;;;;25.97;93.87;101381.88;4948543;28;20039;-84